Terminal Aerodrome Forecast
Issued by NWS

Home | Current Version | Previous Version | Text Only | Print | Product List | Glossary On
Versions: 1 2 3 4 5 6 7 8 9 10 11 12 13 14 15 16 17 18 19 20 21 22 23 24 25 26 27 28 29 30 31 32 33 34 35 36 37 38
000
FTUS41 KALY 262330
TAFPSF
TAF
KPSF 262330Z 2700/2724 28010KT P6SM SCT025 SCT040
      TEMPO 2700/2703 BKN025
     FM270300 27005KT P6SM SCT025 SCT250
     FM270600 00000KT P6SM VCFG FEW025 BKN250
     FM271200 VRB03KT P6SM SCT050 BKN100
     FM271600 VRB06KT 4SM -SHRA BR SCT010 BKN025 OVC050=

USA.gov is the U.S. government's official web portal to all federal, state and local government web resources and services.